Airfield :
LOGIN :

Register | Disclaimer

   EN    FR    IT 

 










Legend :    VFR   Marginal VFR   IFR   Intensive IFR   Very Intensive IFR
Visi :
Ceiling :
>= 8 km
>= 3000ft
5 to 8 km
1000 to 3000 ft
1500m to 5 km
500 to 1000 ft
800 to 1500m
200 to 500 ft
< 800m
< 200 ft
Symbols :   Thunderstorms  Fog  Heavy snow  Heavy precipitations  Wind > 20 kt
SIGMETs :     Misc.  Thunderstorms  Icing  Turbulence  Mountain Waves  Volcanic Ashes







- Airport Elevation : 605 ft
- IATA code : BAY


LRBM - Tautii Magheraus

CURRENT METAR :
  • 160000Z AUTO 10004KT 9999 FEW070/// SCT240/// 09/03 Q1024

EXPIRED METARs :
  • 152330Z AUTO 08004KT 050V120 9999 FEW100/// SCT240/// 09/03 Q1024
  • 152300Z AUTO 10004KT 070V140 9999 FEW085/// SCT200/// 09/03 Q1024
  • 152230Z AUTO 12003KT 080V170 9999 FEW019/// SCT220/// 09/03 Q1024
  • 152200Z AUTO 11004KT 070V180 9999 FEW060/// SCT240/// 11/02 Q1024
  • 152130Z AUTO 08006KT 9999 FEW100/// SCT240/// 12/02 Q1024

Expired Forecast.
No reported NOTAMs for that airfield.



MET'MAP, your aeronautical weather chart ! - Copyright ORBIFLY December 2007 - Disclaimer

ORBIFLY MET'MAP TEAM :

Programming & Development : Alexandra Zaïnal
Concept & Development : Baudouin d'Aumeries
Co-Development & Prog : Marc-Olivier Méhu
Technical & hardware support : Manuel Goepfert

Contact : metmap@orbifly.com




SOURCES & CREDITS :

   NOAA